Time;durP1;ratioP1;P1;durP2;ratioP2;P2;SDS_P1;SDS_P2;PMS_P1;PMS_P2;Temp;Humidity;BMP_temperature;BMP_pressure;BME280_temperature;BME280_humidity;BME280_pressure;Samples;Min_cycle;Max_cycle;Signal;HPM_P1;HPM_P2
2023/02/20 00:01:22;;;;;;;3.22;1.38;;;13.30;57.90;;;;;;5013143;28;20468;-79
2023/02/20 00:03:48;;;;;;;1.25;1.05;;;13.30;57.90;;;;;;5013123;28;20025;-79
2023/02/20 00:06:13;;;;;;;4.18;1.08;;;13.30;57.90;;;;;;4995532;28;20364;-79
2023/02/20 00:08:40;;;;;;;6.00;1.67;;;13.30;58.00;;;;;;4995459;28;20022;-78
2023/02/20 00:11:06;;;;;;;3.45;1.13;;;13.30;58.10;;;;;;4995370;28;20029;-79
2023/02/20 00:13:32;;;;;;;4.75;2.10;;;13.30;58.00;;;;;;5013124;28;20068;-79
2023/02/20 00:15:58;;;;;;;5.15;1.55;;;13.30;58.80;;;;;;5013305;28;20022;-79
2023/02/20 00:18:25;;;;;;;3.47;1.27;;;13.30;58.30;;;;;;4995454;28;20125;-80
2023/02/20 00:20:51;;;;;;;6.28;1.70;;;13.20;58.30;;;;;;4998565;28;20050;-79
2023/02/20 00:23:17;;;;;;;4.60;1.80;;;13.20;58.20;;;;;;5002046;28;20025;-80
2023/02/20 00:25:43;;;;;;;3.35;1.70;;;13.10;58.50;;;;;;5020122;28;20029;-79
2023/02/20 00:28:09;;;;;;;4.63;1.58;;;13.10;58.50;;;;;;5019920;28;20026;-79
2023/02/20 00:30:34;;;;;;;4.75;1.70;;;13.20;58.60;;;;;;4997507;28;20026;-79
2023/02/20 00:33:00;;;;;;;3.63;1.45;;;13.20;58.80;;;;;;5015900;28;20046;-80
2023/02/20 00:35:27;;;;;;;2.05;1.00;;;13.20;58.70;;;;;;4998156;28;20025;-79
2023/02/20 00:37:53;;;;;;;5.65;1.20;;;13.20;58.60;;;;;;4998700;28;20430;-79
2023/02/20 00:40:21;;;;;;;3.42;1.10;;;13.20;58.60;;;;;;5016282;28;20022;-79
2023/02/20 00:42:47;;;;;;;2.55;1.17;;;13.20;58.60;;;;;;5016281;28;20022;-80
2023/02/20 00:45:15;;;;;;;4.53;1.30;;;13.20;58.60;;;;;;4998578;28;20467;-79
2023/02/20 00:47:41;;;;;;;3.67;1.60;;;13.20;58.30;;;;;;5016055;28;20057;-79
2023/02/20 00:50:08;;;;;;;5.40;1.48;;;13.20;58.40;;;;;;5016189;28;20057;-79
2023/02/20 00:52:35;;;;;;;4.45;1.48;;;13.20;58.60;;;;;;5016390;28;20050;-80
2023/02/20 00:55:02;;;;;;;2.63;1.20;;;13.20;58.60;;;;;;5015638;28;20030;-80
2023/02/20 00:57:27;;;;;;;3.28;1.23;;;13.20;58.40;;;;;;5016292;28;20024;-79
2023/02/20 00:59:53;;;;;;;2.90;1.70;;;13.20;58.40;;;;;;4998459;28;20109;-78
2023/02/20 01:02:19;;;;;;;2.65;1.13;;;13.20;58.60;;;;;;5015903;28;20037;-79
2023/02/20 01:04:45;;;;;;;4.32;1.63;;;13.20;58.30;;;;;;4998516;28;20022;-79
2023/02/20 01:07:11;;;;;;;3.15;1.50;;;13.20;58.30;;;;;;4998188;28;20050;-79
2023/02/20 01:09:37;;;;;;;5.13;1.40;;;13.20;58.50;;;;;;4997784;28;20038;-78
2023/02/20 01:12:03;;;;;;;4.63;1.55;;;13.20;58.40;;;;;;5015688;28;20025;-79
2023/02/20 01:14:29;;;;;;;2.33;1.35;;;13.20;58.50;;;;;;5015747;28;20337;-78
2023/02/20 01:16:55;;;;;;;3.97;1.25;;;13.20;58.50;;;;;;5015010;28;20033;-79
2023/02/20 01:19:23;;;;;;;3.53;1.30;;;13.20;58.50;;;;;;5015244;28;20029;-78
2023/02/20 01:28:32;;;;;;;3.33;1.45;;;13.20;58.80;;;;;;4996513;28;20049;-79
2023/02/20 01:30:58;;;;;;;5.38;1.65;;;13.20;58.60;;;;;;4994493;28;20109;-78
2023/02/20 01:33:23;;;;;;;2.08;1.20;;;13.20;58.60;;;;;;4994379;28;20026;-78
2023/02/20 01:35:49;;;;;;;3.10;1.20;;;13.10;58.50;;;;;;4995658;28;20444;-80
2023/02/20 01:38:15;;;;;;;3.45;1.63;;;13.10;58.50;;;;;;4994178;28;20030;-79
2023/02/20 01:40:46;;;;;;;4.47;1.52;;;13.10;58.60;;;;;;4995408;28;20167;-79
2023/02/20 01:43:12;;;;;;;4.00;1.50;;;13.10;58.20;;;;;;4994906;28;20472;-79
2023/02/20 01:45:39;;;;;;;6.80;1.42;;;13.10;58.20;;;;;;4995448;28;20037;-79
2023/02/20 01:48:05;;;;;;;2.58;1.38;;;13.10;58.20;;;;;;4994092;28;20488;-79
2023/02/20 01:50:37;;;;;;;4.60;1.52;;;13.10;58.20;;;;;;4994035;28;20023;-79
2023/02/20 01:53:18;;;;;;;3.35;1.70;;;13.10;58.00;;;;;;4994157;28;20113;-80
2023/02/20 01:55:56;;;;;;;3.67;1.33;;;13.00;58.00;;;;;;4990864;28;20455;-80
2023/02/20 01:58:38;;;;;;;5.95;2.15;;;13.10;58.20;;;;;;4976409;28;20031;-79
2023/02/20 02:01:04;;;;;;;6.93;2.00;;;13.10;58.10;;;;;;4975270;28;20121;-79
2023/02/20 02:03:37;;;;;;;2.80;1.30;;;13.10;58.10;;;;;;4976755;28;20031;-79
2023/02/20 02:06:06;;;;;;;3.42;1.50;;;13.10;58.20;;;;;;4976217;28;20019;-79
2023/02/20 02:08:34;;;;;;;4.57;1.60;;;13.10;57.90;;;;;;4987885;28;20480;-79
2023/02/20 02:11:03;;;;;;;4.00;1.40;;;13.10;57.60;;;;;;4995135;28;20487;-78
2023/02/20 02:13:31;;;;;;;4.43;1.65;;;13.10;57.60;;;;;;4994963;28;20097;-79
2023/02/20 02:16:10;;;;;;;2.72;1.42;;;13.10;57.30;;;;;;4993549;28;20027;-79
2023/02/20 02:18:45;;;;;;;5.45;1.40;;;13.10;57.60;;;;;;4994830;28;20029;-78
2023/02/20 02:21:20;;;;;;;2.47;1.10;;;13.10;57.60;;;;;;4994894;28;20073;-78
2023/02/20 02:24:19;;;;;;;5.47;1.92;;;13.10;57.60;;;;;;4974861;28;20492;-79
2023/02/20 02:27:21;;;;;;;5.32;1.58;;;13.00;57.50;;;;;;4975288;28;20031;-80
2023/02/20 02:29:57;;;;;;;2.55;1.10;;;13.00;57.30;;;;;;4975481;28;20527;-80
2023/02/20 02:32:35;;;;;;;4.93;1.60;;;13.00;57.40;;;;;;4960830;28;20098;-79
2023/02/20 02:35:18;;;;;;;3.22;1.63;;;13.00;57.60;;;;;;4956148;29;20439;-79
2023/02/20 02:38:04;;;;;;;4.55;1.40;;;13.00;57.40;;;;;;4966543;28;20033;-79
2023/02/20 02:40:59;;;;;;;3.28;1.55;;;13.10;57.50;;;;;;4973536;28;20616;-80
2023/02/20 02:43:53;;;;;;;3.28;1.50;;;13.10;57.40;;;;;;4975464;28;20030;-81
2023/02/20 02:46:39;;;;;;;1.95;1.00;;;13.10;57.20;;;;;;4974463;28;20042;-80
2023/02/20 02:49:25;;;;;;;2.88;1.40;;;13.20;57.30;;;;;;4975165;28;20031;-80
2023/02/20 02:51:53;;;;;;;4.90;1.80;;;13.20;57.20;;;;;;4973759;28;20050;-80
2023/02/20 02:54:27;;;;;;;3.15;1.70;;;13.20;57.10;;;;;;4975035;28;20027;-79
2023/02/20 02:57:16;;;;;;;4.13;1.70;;;13.30;57.10;;;;;;4973003;28;20113;-80
2023/02/20 02:59:44;;;;;;;4.70;1.50;;;13.20;57.00;;;;;;4975434;28;20480;-80
2023/02/20 03:02:14;;;;;;;5.28;2.00;;;13.30;57.00;;;;;;4974871;28;20307;-80
2023/02/20 03:04:42;;;;;;;4.63;1.95;;;13.30;56.80;;;;;;4973716;28;20469;-79
2023/02/20 03:07:14;;;;;;;7.03;2.03;;;13.30;56.70;;;;;;4973508;28;20055;-79
2023/02/20 03:09:50;;;;;;;4.10;1.75;;;13.40;56.70;;;;;;4973647;28;20382;-80
2023/02/20 03:12:17;;;;;;;3.50;1.73;;;13.40;56.60;;;;;;4974914;28;20472;-80
2023/02/20 03:17:54;;;;;;;8.68;2.35;;;13.40;56.60;;;;;;4974695;28;20443;-80
2023/02/20 03:20:22;;;;;;;3.20;2.00;;;13.40;56.40;;;;;;4990226;28;20125;-80
2023/02/20 03:23:20;;;;;;;5.40;2.05;;;13.40;56.50;;;;;;4995903;28;20029;-78
2023/02/20 03:26:00;;;;;;;6.45;1.83;;;13.40;56.40;;;;;;5013032;28;20041;-80
2023/02/20 03:28:38;;;;;;;4.65;2.13;;;13.40;56.40;;;;;;5013327;28;20060;-81
2023/02/20 03:31:11;;;;;;;5.00;1.60;;;13.40;56.40;;;;;;5013710;28;20025;-80
2023/02/20 03:45:03;;;;;;;8.32;2.20;;;13.40;56.70;;;;;;5013343;28;20041;-79
2023/02/20 03:47:30;;;;;;;7.80;2.13;;;13.30;56.50;;;;;;4995452;28;20101;-79
2023/02/20 03:49:57;;;;;;;5.43;1.80;;;13.30;56.40;;;;;;5012521;28;20137;-80
2023/02/20 03:52:23;;;;;;;4.05;1.80;;;13.30;56.60;;;;;;5002840;28;20026;-81
2023/02/20 03:54:50;;;;;;;8.60;2.10;;;13.30;57.30;;;;;;4976090;28;20109;-79
2023/02/20 03:57:36;;;;;;;7.45;2.28;;;13.10;56.70;;;;;;4976107;28;20038;-80
2023/02/20 04:00:11;;;;;;;7.20;2.30;;;13.20;56.70;;;;;;4976137;28;20035;-80
2023/02/20 04:02:43;;;;;;;4.50;2.20;;;13.10;56.70;;;;;;4993487;28;20023;-80
2023/02/20 04:05:33;;;;;;;6.88;2.40;;;13.10;56.90;;;;;;5002764;28;20030;-79
2023/02/20 04:08:07;;;;;;;4.38;1.98;;;13.00;57.00;;;;;;5016873;28;20029;-79
2023/02/20 04:10:42;;;;;;;;;;;13.00;57.10;;;;;;4999626;28;20033;-78
2023/02/20 04:13:08;;;;;;;;;;;13.10;57.10;;;;;;5017789;28;19912;-79
2023/02/20 04:15:35;;;;;;;4.63;2.10;;;13.20;57.10;;;;;;5016648;28;19905;-80
2023/02/20 04:18:06;;;;;;;5.63;2.38;;;13.10;57.00;;;;;;4998963;28;20476;-80
2023/02/20 04:20:32;;;;;;;4.50;1.80;;;13.10;57.00;;;;;;4985987;28;20046;-80
2023/02/20 04:23:06;;;;;;;6.53;2.30;;;13.10;57.00;;;;;;4957310;28;20038;-80
2023/02/20 04:25:45;;;;;;;4.53;1.60;;;13.00;56.70;;;;;;4956919;29;20035;-80
2023/02/20 04:28:12;;;;;;;3.85;1.83;;;13.10;57.00;;;;;;4956772;29;20106;-80
2023/02/20 04:30:38;;;;;;;8.48;2.50;;;13.10;57.00;;;;;;4956904;29;20031;-80
2023/02/20 04:33:05;;;;;;;3.80;1.92;;;13.10;56.80;;;;;;4958002;28;20027;-80
2023/02/20 04:35:31;;;;;;;6.93;2.42;;;13.10;57.00;;;;;;4958031;28;20060;-80
2023/02/20 04:37:56;;;;;;;4.25;2.10;;;13.10;56.80;;;;;;4957954;28;20054;-80
2023/02/20 04:40:23;;;;;;;5.93;1.85;;;13.10;56.80;;;;;;4958135;28;20479;-79
2023/02/20 04:42:52;;;;;;;7.00;2.17;;;13.10;56.70;;;;;;4958167;28;20050;-80
2023/02/20 04:45:18;;;;;;;6.97;2.08;;;13.10;56.80;;;;;;4957905;28;20496;-80
2023/02/20 04:47:44;;;;;;;3.10;1.30;;;13.10;56.70;;;;;;4958285;28;20035;-80
2023/02/20 04:50:19;;;;;;;4.32;2.10;;;13.10;56.60;;;;;;4964299;28;20493;-79
2023/02/20 04:52:45;;;;;;;6.07;1.92;;;13.20;56.60;;;;;;4964756;28;20485;-80
2023/02/20 04:55:10;;;;;;;4.65;1.85;;;13.20;56.60;;;;;;4957935;28;20034;-80
2023/02/20 04:57:36;;;;;;;6.88;2.33;;;13.20;56.50;;;;;;4957766;28;20503;-81
2023/02/20 05:00:04;;;;;;;4.45;2.10;;;13.20;56.50;;;;;;4957607;29;20019;-77
2023/02/20 05:02:30;;;;;;;6.65;2.20;;;13.20;56.40;;;;;;4957343;28;20024;-79
2023/02/20 05:04:55;;;;;;;5.32;2.30;;;13.10;56.50;;;;;;4972751;28;20030;-79
2023/02/20 05:07:21;;;;;;;7.15;2.08;;;13.10;56.50;;;;;;4976501;28;20106;-78
2023/02/20 05:09:47;;;;;;;8.07;2.22;;;13.20;56.40;;;;;;4976791;28;20023;-79
2023/02/20 05:12:13;;;;;;;3.35;1.80;;;13.20;56.50;;;;;;4976475;28;20090;-78
2023/02/20 05:14:39;;;;;;;6.82;2.50;;;13.20;56.50;;;;;;4976831;28;20033;-79
2023/02/20 05:17:04;;;;;;;7.18;2.15;;;13.20;56.60;;;;;;4975636;28;20425;-79
2023/02/20 05:19:30;;;;;;;3.78;1.60;;;13.10;56.40;;;;;;4977548;28;20753;-79
2023/02/20 05:24:44;;;;;;;;;;;13.20;56.40;;;;;;5016556;28;20118;-79
2023/02/20 05:27:11;;;;;;;2.88;1.40;;;13.20;56.50;;;;;;5015729;28;19929;-79
2023/02/20 05:29:36;;;;;;;3.60;2.00;;;13.30;56.30;;;;;;4997809;28;20030;-78
2023/02/20 05:32:03;;;;;;;8.40;1.80;;;13.30;56.10;;;;;;4997895;28;20033;-79
2023/02/20 05:34:28;;;;;;;7.90;1.90;;;13.20;56.10;;;;;;4997806;28;20072;-78
2023/02/20 05:36:56;;;;;;;4.63;1.88;;;13.20;56.10;;;;;;5015193;28;20427;-80
2023/02/20 05:39:21;;;;;;;6.18;1.60;;;13.20;56.00;;;;;;5015022;28;20029;-79
2023/02/20 05:41:48;;;;;;;9.02;2.45;;;13.20;56.00;;;;;;5014997;28;20029;-79
2023/02/20 05:44:13;;;;;;;6.88;2.15;;;13.10;56.10;;;;;;5015056;28;20587;-79
2023/02/20 05:46:41;;;;;;;4.95;1.88;;;13.10;56.20;;;;;;4997269;28;20060;-78
2023/02/20 05:49:07;;;;;;;6.38;1.83;;;13.10;56.20;;;;;;5014272;28;20033;-78
2023/02/20 05:51:33;;;;;;;5.13;2.22;;;13.10;56.00;;;;;;5014739;28;20103;-79
2023/02/20 05:53:59;;;;;;;5.22;2.00;;;13.00;56.00;;;;;;5014722;28;20022;-79
2023/02/20 05:56:24;;;;;;;4.80;1.60;;;13.00;56.10;;;;;;5014743;28;20033;-79
2023/02/20 05:58:50;;;;;;;9.95;2.35;;;13.00;56.20;;;;;;5014689;28;20022;-78
2023/02/20 06:01:19;;;;;;;6.72;1.67;;;13.00;56.20;;;;;;4997171;28;20100;-79
2023/02/20 06:03:45;;;;;;;5.85;2.10;;;12.90;56.30;;;;;;4997093;28;20100;-80
2023/02/20 06:06:11;;;;;;;4.03;1.90;;;12.90;56.40;;;;;;5014608;28;20420;-78
2023/02/20 06:08:39;;;;;;;8.65;2.58;;;12.90;56.60;;;;;;5014606;28;20022;-79
2023/02/20 06:11:05;;;;;;;4.63;2.50;;;12.90;56.60;;;;;;5015074;28;20021;-79
2023/02/20 06:13:31;;;;;;;9.43;2.58;;;12.90;56.70;;;;;;5002918;28;20022;-78
2023/02/20 06:15:57;;;;;;;8.25;2.17;;;13.00;56.60;;;;;;5004056;28;20024;-79
2023/02/20 06:18:22;;;;;;;9.00;2.55;;;13.00;56.40;;;;;;5020823;28;20026;-79
2023/02/20 06:20:48;;;;;;;4.82;1.83;;;13.00;56.40;;;;;;5000932;28;20393;-79
2023/02/20 06:23:14;;;;;;;6.95;1.98;;;12.90;56.40;;;;;;5014614;28;20044;-80
2023/02/20 06:25:40;;;;;;;8.98;1.80;;;13.00;56.80;;;;;;4996638;28;20109;-79
2023/02/20 06:28:06;;;;;;;6.85;2.13;;;12.90;56.30;;;;;;5013754;28;20114;-79
2023/02/20 06:30:32;;;;;;;9.05;2.83;;;13.00;56.50;;;;;;5013831;28;20030;-78
2023/02/20 06:32:58;;;;;;;6.43;2.13;;;13.00;56.30;;;;;;4995641;28;20100;-79
2023/02/20 06:35:23;;;;;;;7.13;2.40;;;12.90;56.30;;;;;;5014018;28;20026;-78
2023/02/20 06:37:49;;;;;;;5.68;2.40;;;12.90;56.20;;;;;;5013944;28;20099;-79
2023/02/20 06:40:15;;;;;;;7.38;1.80;;;12.90;56.10;;;;;;4996182;28;20101;-81
2023/02/20 06:42:41;;;;;;;2.78;1.77;;;12.90;56.20;;;;;;5013606;28;20103;-79
2023/02/20 06:45:07;;;;;;;7.03;2.20;;;13.00;56.20;;;;;;5013904;28;20049;-80
2023/02/20 06:47:33;;;;;;;6.68;1.83;;;12.90;56.80;;;;;;5013945;28;20050;-80
2023/02/20 06:49:58;;;;;;;6.85;2.22;;;13.00;56.10;;;;;;4995530;28;20026;-79
2023/02/20 06:52:24;;;;;;;2.38;1.42;;;12.90;56.10;;;;;;5013552;28;20133;-79
2023/02/20 06:54:51;;;;;;;5.68;1.80;;;13.00;56.30;;;;;;5014144;28;20022;-80
2023/02/20 06:57:17;;;;;;;10.27;2.22;;;13.00;56.30;;;;;;4995526;28;20038;-79
2023/02/20 06:59:46;;;;;;;7.00;1.88;;;12.90;56.10;;;;;;5013707;28;20078;-80
2023/02/20 07:02:13;;;;;;;8.13;2.40;;;12.90;56.30;;;;;;5013487;28;20103;-79
2023/02/20 07:04:39;;;;;;;6.40;2.22;;;12.90;56.30;;;;;;5013849;28;20037;-80
2023/02/20 07:07:05;;;;;;;5.97;1.80;;;12.90;56.40;;;;;;5013863;28;20109;-79
2023/02/20 07:09:31;;;;;;;8.30;2.33;;;13.00;56.30;;;;;;5013864;28;20100;-80
2023/02/20 07:11:57;;;;;;;12.43;2.15;;;13.00;56.20;;;;;;5013883;28;20072;-79
2023/02/20 07:14:23;;;;;;;11.48;2.22;;;13.00;56.00;;;;;;5013382;28;20030;-80
2023/02/20 07:16:49;;;;;;;9.05;2.00;;;13.00;56.10;;;;;;5013137;28;20103;-80
2023/02/20 07:19:15;;;;;;;9.70;3.03;;;13.10;56.10;;;;;;5013199;28;20029;-80
2023/02/20 07:21:41;;;;;;;5.80;2.42;;;13.00;55.90;;;;;;5013065;28;20058;-79
2023/02/20 07:24:07;;;;;;;24.90;3.17;;;13.00;56.00;;;;;;4995906;28;20057;-80
2023/02/20 07:26:35;;;;;;;4.95;2.38;;;13.00;56.00;;;;;;5013312;28;20049;-80
2023/02/20 07:29:02;;;;;;;8.32;2.35;;;13.00;56.10;;;;;;4995281;28;20122;-80
2023/02/20 07:31:28;;;;;;;4.68;1.80;;;12.90;56.10;;;;;;5013017;28;20018;-79
2023/02/20 07:33:54;;;;;;;6.93;2.33;;;12.90;56.30;;;;;;4995129;28;20506;-80
2023/02/20 07:36:20;;;;;;;5.90;2.17;;;12.90;56.20;;;;;;5012727;28;20022;-80
2023/02/20 07:38:57;;;;;;;8.45;2.55;;;12.90;56.30;;;;;;5012668;28;20029;-79
2023/02/20 07:41:25;;;;;;;9.68;2.55;;;12.90;56.20;;;;;;5016210;28;20030;-80
2023/02/20 07:43:51;;;;;;;9.35;2.20;;;13.00;56.40;;;;;;5016753;28;20029;-78
2023/02/20 07:46:16;;;;;;;8.32;2.22;;;13.00;56.30;;;;;;5016047;28;20487;-79
2023/02/20 07:48:42;;;;;;;11.15;2.00;;;13.10;56.20;;;;;;5016656;28;20470;-79
2023/02/20 07:51:08;;;;;;;6.70;2.53;;;13.10;56.10;;;;;;4999313;28;20033;-79
2023/02/20 07:53:34;;;;;;;5.85;2.20;;;13.10;55.70;;;;;;4999415;28;20397;-78
2023/02/20 07:56:00;;;;;;;5.25;2.25;;;13.20;55.80;;;;;;5016986;28;20041;-79
2023/02/20 07:58:26;;;;;;;6.07;2.28;;;13.20;55.70;;;;;;5016697;28;20026;-78
2023/02/20 08:00:52;;;;;;;5.47;2.42;;;13.30;55.50;;;;;;4998677;28;20030;-79
2023/02/20 08:03:19;;;;;;;6.28;2.53;;;13.30;55.40;;;;;;4998909;28;20387;-79
2023/02/20 08:05:45;;;;;;;5.63;2.40;;;13.30;55.20;;;;;;5016633;28;20483;-79
2023/02/20 08:08:11;;;;;;;8.02;2.60;;;13.30;55.30;;;;;;5016331;28;20040;-79
2023/02/20 08:10:37;;;;;;;5.60;2.30;;;13.30;55.20;;;;;;4999103;28;20354;-78
2023/02/20 08:13:03;;;;;;;6.65;2.50;;;13.30;55.10;;;;;;5017054;28;20371;-78
2023/02/20 08:15:29;;;;;;;5.53;2.58;;;13.30;55.20;;;;;;5016659;28;20021;-78
2023/02/20 08:17:55;;;;;;;7.95;2.38;;;13.40;55.20;;;;;;5016342;28;20113;-79
2023/02/20 08:20:21;;;;;;;7.50;2.72;;;13.40;55.00;;;;;;5016046;28;20050;-79
2023/02/20 08:22:49;;;;;;;6.55;2.63;;;13.40;55.00;;;;;;4998930;28;20037;-78
2023/02/20 08:25:16;;;;;;;13.00;2.90;;;13.50;55.10;;;;;;4998180;28;20084;-78
2023/02/20 08:27:47;;;;;;;10.90;3.00;;;13.50;54.90;;;;;;4998432;28;20403;-79
2023/02/20 08:30:22;;;;;;;10.02;2.30;;;13.50;54.80;;;;;;5016319;28;20398;-79
2023/02/20 08:32:50;;;;;;;10.70;2.83;;;13.50;54.70;;;;;;5016353;28;20056;-79
2023/02/20 08:35:16;;;;;;;6.40;2.60;;;13.60;54.70;;;;;;5016527;28;20029;-78
2023/02/20 08:37:43;;;;;;;8.13;2.50;;;13.50;54.60;;;;;;5016224;28;20033;-79
2023/02/20 08:40:09;;;;;;;5.63;2.30;;;13.60;54.70;;;;;;5014688;28;20026;-79
2023/02/20 08:42:35;;;;;;;5.78;2.70;;;13.60;54.40;;;;;;5015914;28;20079;-79
2023/02/20 08:45:03;;;;;;;9.35;2.75;;;13.60;54.50;;;;;;5015954;28;20108;-79
2023/02/20 08:47:29;;;;;;;6.00;2.47;;;13.60;54.30;;;;;;4998222;28;20037;-79
2023/02/20 08:49:55;;;;;;;10.38;3.25;;;13.60;54.10;;;;;;5015292;28;20022;-79
2023/02/20 08:52:21;;;;;;;3.88;2.28;;;13.60;54.10;;;;;;4998038;28;20572;-79
2023/02/20 08:54:47;;;;;;;6.97;2.60;;;13.60;54.10;;;;;;4997464;28;20109;-79
2023/02/20 08:57:14;;;;;;;6.38;2.42;;;13.60;54.20;;;;;;5012286;28;20113;-79
2023/02/20 08:59:40;;;;;;;6.95;2.60;;;13.50;53.90;;;;;;5015967;28;20032;-80
2023/02/20 09:02:07;;;;;;;7.30;2.35;;;13.50;54.00;;;;;;4998385;28;20030;-78
2023/02/20 09:04:33;;;;;;;7.45;2.75;;;13.60;54.30;;;;;;4998866;28;20037;-79
2023/02/20 09:06:59;;;;;;;13.50;2.40;;;13.60;54.00;;;;;;5015883;28;20480;-79
2023/02/20 09:09:24;;;;;;;8.25;2.38;;;13.70;53.90;;;;;;4997134;28;20041;-79
2023/02/20 09:11:50;;;;;;;9.85;2.70;;;13.80;53.40;;;;;;5016032;28;20018;-80
2023/02/20 09:14:16;;;;;;;10.38;3.08;;;13.80;53.40;;;;;;4998251;28;20072;-79
2023/02/20 09:16:42;;;;;;;5.95;2.25;;;13.80;53.40;;;;;;4998324;28;20076;-80
2023/02/20 09:19:12;;;;;;;6.22;2.10;;;13.80;53.50;;;;;;4998223;28;20026;-80
2023/02/20 09:21:38;;;;;;;9.77;2.60;;;13.80;53.20;;;;;;5015430;28;20057;-79
2023/02/20 09:24:05;;;;;;;6.85;2.40;;;13.90;53.20;;;;;;5015739;28;20376;-80
2023/02/20 09:26:31;;;;;;;9.27;2.65;;;13.80;52.80;;;;;;5015561;28;20105;-79
2023/02/20 09:28:56;;;;;;;6.53;2.90;;;13.80;52.60;;;;;;4997927;28;20432;-79
2023/02/20 09:31:22;;;;;;;6.13;2.45;;;13.80;52.70;;;;;;5015224;28;20387;-79
2023/02/20 09:33:48;;;;;;;11.40;3.15;;;13.90;52.80;;;;;;4997739;28;20029;-79
2023/02/20 09:36:14;;;;;;;7.97;2.40;;;13.80;52.70;;;;;;5015251;28;20029;-79
2023/02/20 09:38:40;;;;;;;6.43;2.95;;;13.80;52.70;;;;;;4997551;28;20026;-80
2023/02/20 09:41:29;;;;;;;8.60;2.50;;;13.90;53.10;;;;;;5014831;28;20022;-80
2023/02/20 09:44:33;;;;;;;8.05;2.67;;;14.00;52.70;;;;;;4997466;28;20336;-80
2023/02/20 09:47:23;;;;;;;8.50;2.38;;;14.10;52.60;;;;;;4997268;28;20042;-79
2023/02/20 09:49:50;;;;;;;7.05;2.70;;;14.10;52.60;;;;;;5014621;28;20506;-80
2023/02/20 09:52:17;;;;;;;10.80;2.60;;;14.20;52.80;;;;;;4997369;28;20100;-80
2023/02/20 09:54:49;;;;;;;7.43;2.47;;;14.10;52.10;;;;;;5014928;28;20049;-79
2023/02/20 09:57:26;;;;;;;7.78;2.55;;;14.10;52.20;;;;;;4997156;28;20081;-80
2023/02/20 10:00:05;;;;;;;5.25;2.40;;;14.10;52.00;;;;;;5014704;28;20040;-80
2023/02/20 10:02:36;;;;;;;10.48;3.50;;;14.10;51.70;;;;;;5014597;28;20057;-79
2023/02/20 10:05:11;;;;;;;6.78;2.72;;;14.10;51.80;;;;;;5014596;28;20117;-79
2023/02/20 10:07:40;;;;;;;5.88;2.55;;;14.10;52.10;;;;;;4997077;28;20065;-80
2023/02/20 10:10:29;;;;;;;5.78;2.28;;;14.10;51.80;;;;;;5014695;28;20025;-80
2023/02/20 10:13:12;;;;;;;8.63;2.33;;;14.20;51.80;;;;;;5014578;28;20471;-80
2023/02/20 10:15:49;;;;;;;7.15;2.80;;;14.20;51.60;;;;;;5014965;28;20025;-79
2023/02/20 10:18:45;;;;;;;7.50;2.25;;;14.30;51.60;;;;;;5014473;28;20368;-79
2023/02/20 10:21:34;;;;;;;8.13;2.53;;;14.30;51.80;;;;;;4995386;28;20050;-79
2023/02/20 10:24:22;;;;;;;8.80;2.67;;;14.40;51.90;;;;;;4996714;28;20030;-79
2023/02/20 10:26:54;;;;;;;6.65;2.17;;;14.40;52.20;;;;;;5014279;28;20030;-80
2023/02/20 10:29:25;;;;;;;10.32;2.72;;;14.50;51.80;;;;;;4996585;28;20049;-80
2023/02/20 10:32:08;;;;;;;9.18;2.70;;;14.50;51.60;;;;;;4996590;28;20033;-79
2023/02/20 10:34:36;;;;;;;8.87;2.77;;;14.60;51.20;;;;;;5014178;28;20088;-80
2023/02/20 10:37:10;;;;;;;15.88;3.05;;;14.60;51.10;;;;;;5014141;28;20618;-78
2023/02/20 10:39:39;;;;;;;11.40;2.20;;;14.70;51.10;;;;;;5014039;28;20372;-79
2023/02/20 10:42:11;;;;;;;7.53;2.90;;;14.80;51.50;;;;;;5013984;28;20109;-79
2023/02/20 10:44:53;;;;;;;5.93;2.55;;;14.90;50.30;;;;;;4995852;28;20033;-79
2023/02/20 10:47:29;;;;;;;7.05;2.17;;;15.00;50.10;;;;;;5013619;28;20030;-79
2023/02/20 10:50:23;;;;;;;7.07;2.15;;;15.00;49.90;;;;;;5012779;28;20026;-79
2023/02/20 10:53:15;;;;;;;8.65;2.40;;;15.10;49.80;;;;;;4944160;28;20043;-80
2023/02/20 10:55:47;;;;;;;7.07;2.42;;;15.20;49.20;;;;;;4996003;28;20026;-79
2023/02/20 10:58:26;;;;;;;6.57;2.72;;;15.20;49.40;;;;;;5014122;28;20021;-79
2023/02/20 11:01:04;;;;;;;9.43;3.53;;;15.20;48.80;;;;;;5013794;28;20510;-81
2023/02/20 11:04:01;;;;;;;4.93;2.45;;;15.10;48.70;;;;;;5013161;28;20037;-79
2023/02/20 11:06:35;;;;;;;11.38;2.67;;;15.00;49.10;;;;;;5013466;28;20022;-80
2023/02/20 11:09:01;;;;;;;6.68;2.97;;;15.00;49.30;;;;;;5013222;28;20036;-80
2023/02/20 11:11:33;;;;;;;4.82;2.35;;;15.00;49.40;;;;;;5013548;28;20022;-80
2023/02/20 11:14:01;;;;;;;6.00;3.00;;;15.00;49.60;;;;;;5013578;28;20018;-80
2023/02/20 11:16:40;;;;;;;11.48;2.42;;;15.00;49.40;;;;;;4995758;28;20076;-79
2023/02/20 11:19:28;;;;;;;6.07;2.00;;;15.00;49.10;;;;;;5008695;28;20030;-80
2023/02/20 11:21:54;;;;;;;5.93;2.30;;;14.90;49.20;;;;;;4969128;28;20348;-80
2023/02/20 11:24:29;;;;;;;7.60;3.13;;;15.00;49.50;;;;;;4974216;28;20023;-80
2023/02/20 11:27:04;;;;;;;6.72;2.58;;;15.00;49.10;;;;;;4973100;28;20058;-80
2023/02/20 11:29:37;;;;;;;7.13;2.55;;;15.00;49.20;;;;;;4974453;28;20360;-80
2023/02/20 11:32:24;;;;;;;4.20;2.38;;;15.00;49.40;;;;;;4974400;28;20023;-79
2023/02/20 11:35:28;;;;;;;6.60;2.35;;;15.00;49.30;;;;;;4973196;28;20072;-79
2023/02/20 11:38:13;;;;;;;;;;;15.10;49.30;;;;;;4915142;29;20044;-79
2023/02/20 11:40:39;;;;;;;3.50;2.13;;;15.20;49.90;;;;;;4931187;29;19907;-80
2023/02/20 11:43:15;;;;;;;8.13;2.47;;;15.20;48.90;;;;;;4921807;29;20029;-79
2023/02/20 11:45:41;;;;;;;9.05;2.53;;;15.20;48.50;;;;;;4921988;29;20523;-79
2023/02/20 11:48:15;;;;;;;11.75;2.55;;;15.20;48.50;;;;;;4937913;29;20036;-79
2023/02/20 11:50:49;;;;;;;6.82;2.45;;;15.10;48.30;;;;;;4932304;29;20032;-78
2023/02/20 11:53:18;;;;;;;11.20;3.10;;;15.20;48.70;;;;;;4933501;29;20036;-79
2023/02/20 11:55:44;;;;;;;4.32;2.13;;;15.20;48.60;;;;;;4933695;29;20115;-80
2023/02/20 11:58:22;;;;;;;3.90;2.00;;;15.30;48.20;;;;;;4933520;29;20043;-80
2023/02/20 12:00:50;;;;;;;10.15;2.78;;;15.30;48.30;;;;;;4933597;29;20525;-80
2023/02/20 12:03:23;;;;;;;6.68;2.90;;;15.30;48.00;;;;;;4933401;29;20119;-79
2023/02/20 12:05:50;;;;;;;5.90;2.15;;;15.40;48.00;;;;;;4917240;29;20425;-81
2023/02/20 12:08:36;;;;;;;10.15;2.60;;;15.40;47.90;;;;;;4917350;29;20028;-79
2023/02/20 12:11:24;;;;;;;7.65;2.55;;;15.60;48.10;;;;;;4931810;29;20082;-79
2023/02/20 12:13:52;;;;;;;5.50;2.00;;;15.60;47.60;;;;;;4952533;28;20039;-80
2023/02/20 12:16:35;;;;;;;7.40;2.38;;;15.70;47.20;;;;;;4974129;28;20046;-79
2023/02/20 12:19:34;;;;;;;6.18;1.98;;;15.80;47.00;;;;;;4972305;28;20023;-79
2023/02/20 12:22:14;;;;;;;6.55;2.20;;;15.90;46.30;;;;;;4953189;28;20193;-79
2023/02/20 12:25:01;;;;;;;5.18;2.28;;;16.00;45.90;;;;;;4954524;28;20031;-80
2023/02/20 12:27:45;;;;;;;4.55;2.10;;;16.00;45.60;;;;;;4957824;28;20032;-78
2023/02/20 12:30:25;;;;;;;8.07;2.60;;;16.10;45.40;;;;;;4967591;28;20027;-82
2023/02/20 12:33:13;;;;;;;5.65;2.08;;;16.10;44.80;;;;;;4978100;28;20083;-86
2023/02/20 12:36:05;;;;;;;13.68;2.85;;;16.10;45.60;;;;;;4979688;28;20030;-83
2023/02/20 12:38:52;;;;;;;8.50;2.17;;;16.10;45.30;;;;;;4983098;28;20048;-83
2023/02/20 12:41:28;;;;;;;6.68;2.17;;;16.00;45.40;;;;;;4988194;28;20141;-89
2023/02/20 12:44:23;;;;;;;6.40;2.20;;;16.10;45.30;;;;;;4975515;28;20034;-84
2023/02/20 12:47:15;;;;;;;8.13;2.30;;;16.10;45.50;;;;;;4970893;28;20037;-85
2023/02/20 12:50:01;;;;;;;8.60;2.13;;;16.20;45.40;;;;;;4981675;28;20039;-88
2023/02/20 12:52:38;;;;;;;7.10;1.85;;;16.20;45.60;;;;;;4965696;28;20039;-83
2023/02/20 12:55:16;;;;;;;3.72;2.13;;;16.20;45.50;;;;;;4971599;28;20028;-89
2023/02/20 12:58:02;;;;;;;6.00;2.00;;;16.30;46.00;;;;;;4961578;29;20034;-83
2023/02/20 13:00:35;;;;;;;12.18;3.03;;;16.40;45.90;;;;;;4981596;28;20098;-85
2023/02/20 13:03:14;;;;;;;10.52;2.30;;;16.40;45.30;;;;;;4983806;28;20135;-86
2023/02/20 13:05:43;;;;;;;6.28;2.33;;;16.50;45.10;;;;;;4983081;28;20036;-84
2023/02/20 13:08:17;;;;;;;8.88;2.30;;;16.50;45.00;;;;;;4978158;28;20078;-85
2023/02/20 13:10:58;;;;;;;6.03;1.80;;;16.50;45.00;;;;;;4976086;28;20058;-86
2023/02/20 13:13:31;;;;;;;5.05;1.88;;;16.40;45.00;;;;;;5010743;28;20027;-84
2023/02/20 13:16:31;;;;;;;7.45;2.58;;;16.50;45.20;;;;;;4983215;28;20027;-84
2023/02/20 13:19:20;;;;;;;6.28;2.20;;;16.50;44.40;;;;;;4965531;28;20062;-79
2023/02/20 13:21:46;;;;;;;7.97;2.00;;;16.50;43.40;;;;;;5011456;28;20053;-79
2023/02/20 13:24:33;;;;;;;2.35;1.63;;;16.60;43.70;;;;;;5015415;28;20026;-79
2023/02/20 13:27:08;;;;;;;7.50;2.03;;;16.60;43.80;;;;;;5002139;28;20038;-82
2023/02/20 13:29:37;;;;;;;4.70;1.90;;;16.60;43.30;;;;;;4997692;28;20080;-80
2023/02/20 13:32:22;;;;;;;5.28;1.90;;;16.60;43.20;;;;;;4995933;28;20059;-82
2023/02/20 13:34:48;;;;;;;7.47;2.78;;;16.60;43.10;;;;;;4998370;28;20024;-80